Summary for KCOGRAND2

Redlands, Southcamp Road & Dakota Circle, Grand Junction, CO 81507
Join the PWSweather.com Network
View data in metric units
Latest Conditions
Updated 1:04:30 PM MST Wednesday, Jan 28, 2015
Data Currently Today's Max Today's Min Today's Average
Temperature 51.4°F10.8°C 51.4°F10.8°C 26.8°F-2.9°C 35.5°F1.9°C
Dew Point 25.3°F-3.7°C 28.8°F-1.8°C 20.5°F-6.4°C 24.7°F-4.1°C
Winds 4.0 mph SW6.4 kmh SW 8.0 mph S12.9 kmh S CalmCalm 2.0 mph3.2 kmh
Wind Gusts 8.7 mph14.0 kmh 15.4 mph24.8 kmh -- 4.4 mph7.1 kmh
Humidity 36% 87% 36% 67%
Pressure 25.25 in855.1 mb 25.28 in856.1 mb 25.22 in854.0 mb 25.25 in855.1 mb
Precipitation 0.00 in0.0 mm - - 0.00 in0.0 mm
Trends
 
Station Profile
Redlands, Southcamp Road & Dakota CircleGrand Junction, CO 81507

Lat: 39.055, Lon: -108.637
Elevation: 4870
Station Type: RadioShack WX200

Detailed Summary for Wed, Jan 28, 2015
Hour (MST) Temperature Dew Point Humidity Winds Wind Gusts Pressure Precip Precip Rate Daily Precip Total
01:04 PM 51.4°F10.8°C 25.3°F-3.7°C 36% 4.0 mph SW6.4 kmh SW 8.7 mph14.0 kmh 25.25 in855.1 mb 0.00 in0.0 mm 0.00 in/hr0.0 mm/hr 0.00 in0.0 mm
12:59 PM 51.3°F10.7°C 25.9°F-3.4°C 37% 4.0 mph SW6.4 kmh SW 6.7 mph10.8 kmh 25.25 in855.1 mb 0.00 in0.0 mm 0.00 in/hr0.0 mm/hr 0.00 in0.0 mm
12:54 PM 51.1°F10.6°C 25.7°F-3.5°C 37% 4.0 mph SW6.4 kmh SW 8.7 mph14.0 kmh 25.25 in855.1 mb 0.00 in0.0 mm 0.00 in/hr0.0 mm/hr 0.00 in0.0 mm
12:49 PM 51.4°F10.8°C 26.1°F-3.3°C 37% 4.0 mph WSW6.4 kmh WSW 7.4 mph11.9 kmh 25.25 in855.1 mb 0.00 in0.0 mm 0.00 in/hr0.0 mm/hr 0.00 in0.0 mm
12:44 PM 50.4°F10.2°C 25.2°F-3.8°C 37% 5.0 mph WSW8.0 kmh WSW 7.8 mph12.6 kmh 25.25 in855.1 mb 0.00 in0.0 mm 0.00 in/hr0.0 mm/hr 0.00 in0.0 mm
12:39 PM 50.2°F10.1°C 25.0°F-3.9°C 37% 5.0 mph WSW8.0 kmh WSW 8.3 mph13.4 kmh 25.25 in855.1 mb 0.00 in0.0 mm 0.00 in/hr0.0 mm/hr 0.00 in0.0 mm
12:34 PM 50.7°F10.4°C 25.3°F-3.7°C 37% 3.0 mph WSW4.8 kmh WSW 6.7 mph10.8 kmh 25.25 in855.1 mb 0.00 in0.0 mm 0.00 in/hr0.0 mm/hr 0.00 in0.0 mm
12:29 PM 51.1°F10.6°C 25.7°F-3.5°C 37% 3.0 mph WSW4.8 kmh WSW 4.9 mph7.9 kmh 25.25 in855.1 mb 0.00 in0.0 mm 0.00 in/hr0.0 mm/hr 0.00 in0.0 mm
12:24 PM 50.4°F10.2°C 25.2°F-3.8°C 37% 3.0 mph WSW4.8 kmh WSW 6.7 mph10.8 kmh 25.25 in855.1 mb 0.00 in0.0 mm 0.00 in/hr0.0 mm/hr 0.00 in0.0 mm
12:19 PM 50.7°F10.4°C 26.1°F-3.3°C 38% 2.0 mph SW3.2 kmh SW 6.9 mph11.1 kmh 25.25 in855.1 mb 0.00 in0.0 mm 0.00 in/hr0.0 mm/hr 0.00 in0.0 mm
12:14 PM 50.2°F10.1°C 25.5°F-3.6°C 38% 3.0 mph SW4.8 kmh SW 4.9 mph7.9 kmh 25.25 in855.1 mb 0.00 in0.0 mm 0.00 in/hr0.0 mm/hr 0.00 in0.0 mm
12:09 PM 50.2°F10.1°C 25.0°F-3.9°C 37% 4.0 mph SSW6.4 kmh SSW 5.4 mph8.7 kmh 25.28 in856.1 mb 0.00 in0.0 mm 0.00 in/hr0.0 mm/hr 0.00 in0.0 mm
12:04 PM 49.6°F9.8°C 24.4°F-4.2°C 37% 4.0 mph S6.4 kmh S 5.8 mph9.3 kmh 25.28 in856.1 mb 0.00 in0.0 mm 0.00 in/hr0.0 mm/hr 0.00 in0.0 mm
11:59 AM 50.2°F10.1°C 25.5°F-3.6°C 38% 3.0 mph S4.8 kmh S 5.4 mph8.7 kmh 25.28 in856.1 mb 0.00 in0.0 mm 0.00 in/hr0.0 mm/hr 0.00 in0.0 mm
11:54 AM 49.3°F9.6°C 24.8°F-4.0°C 38% 3.0 mph S4.8 kmh S 5.4 mph8.7 kmh 25.28 in856.1 mb 0.00 in0.0 mm 0.00 in/hr0.0 mm/hr 0.00 in0.0 mm
11:49 AM 48.7°F9.3°C 24.3°F-4.3°C 38% 2.0 mph S3.2 kmh S 4.9 mph7.9 kmh 25.28 in856.1 mb 0.00 in0.0 mm 0.00 in/hr0.0 mm/hr 0.00 in0.0 mm
11:44 AM 48.7°F9.3°C 24.3°F-4.3°C 38% 2.0 mph S3.2 kmh S 4.9 mph7.9 kmh 25.28 in856.1 mb 0.00 in0.0 mm 0.00 in/hr0.0 mm/hr 0.00 in0.0 mm
11:39 AM 48.7°F9.3°C 23.7°F-4.6°C 37% 2.0 mph S3.2 kmh S 5.4 mph8.7 kmh 25.28 in856.1 mb 0.00 in0.0 mm 0.00 in/hr0.0 mm/hr 0.00 in0.0 mm
11:34 AM 48.4°F9.1°C 24.6°F-4.1°C 39% 2.0 mph S3.2 kmh S 4.5 mph7.2 kmh 25.28 in856.1 mb 0.00 in0.0 mm 0.00 in/hr0.0 mm/hr 0.00 in0.0 mm
11:29 AM 47.8°F8.8°C 24.1°F-4.4°C 39% 2.0 mph S3.2 kmh S 4.9 mph7.9 kmh 25.28 in856.1 mb 0.00 in0.0 mm 0.00 in/hr0.0 mm/hr 0.00 in0.0 mm
11:24 AM 47.7°F8.7°C 23.9°F-4.5°C 39% 1.0 mph S1.6 kmh S 4.9 mph7.9 kmh 25.28 in856.1 mb 0.00 in0.0 mm 0.00 in/hr0.0 mm/hr 0.00 in0.0 mm
11:19 AM 47.1°F8.4°C 24.6°F-4.1°C 41% 1.0 mph S1.6 kmh S 4.0 mph6.4 kmh 25.28 in856.1 mb 0.00 in0.0 mm 0.00 in/hr0.0 mm/hr 0.00 in0.0 mm
11:14 AM 46.8°F8.2°C 25.0°F-3.9°C 42% 2.0 mph S3.2 kmh S 4.0 mph6.4 kmh 25.28 in856.1 mb 0.00 in0.0 mm 0.00 in/hr0.0 mm/hr 0.00 in0.0 mm
11:09 AM 45.7°F7.6°C 24.4°F-4.2°C 43% 2.0 mph S3.2 kmh S 5.4 mph8.7 kmh 25.28 in856.1 mb 0.00 in0.0 mm 0.00 in/hr0.0 mm/hr 0.00 in0.0 mm
11:04 AM 45.1°F7.3°C 24.6°F-4.1°C 44% 3.0 mph S4.8 kmh S 5.8 mph9.3 kmh 25.28 in856.1 mb 0.00 in0.0 mm 0.00 in/hr0.0 mm/hr 0.00 in0.0 mm
10:59 AM 45.0°F7.2°C 23.9°F-4.5°C 43% 3.0 mph S4.8 kmh S 5.8 mph9.3 kmh 25.28 in856.1 mb 0.00 in0.0 mm 0.00 in/hr0.0 mm/hr 0.00 in0.0 mm
10:54 AM 44.8°F7.1°C 25.3°F-3.7°C 46% 2.0 mph S3.2 kmh S 4.5 mph7.2 kmh 25.28 in856.1 mb 0.00 in0.0 mm 0.00 in/hr0.0 mm/hr 0.00 in0.0 mm
10:49 AM 43.7°F6.5°C 24.8°F-4.0°C 47% 2.0 mph S3.2 kmh S 4.9 mph7.9 kmh 25.28 in856.1 mb 0.00 in0.0 mm 0.00 in/hr0.0 mm/hr 0.00 in0.0 mm
10:44 AM 43.2°F6.2°C 24.8°F-4.0°C 48% 2.0 mph S3.2 kmh S 4.9 mph7.9 kmh 25.28 in856.1 mb 0.00 in0.0 mm 0.00 in/hr0.0 mm/hr 0.00 in0.0 mm
10:39 AM 42.6°F5.9°C 25.3°F-3.7°C 50% 2.0 mph S3.2 kmh S 4.0 mph6.4 kmh 25.28 in856.1 mb 0.00 in0.0 mm 0.00 in/hr0.0 mm/hr 0.00 in0.0 mm
10:34 AM 41.9°F5.5°C 24.6°F-4.1°C 50% 2.0 mph S3.2 kmh S 3.6 mph5.8 kmh 25.28 in856.1 mb 0.00 in0.0 mm 0.00 in/hr0.0 mm/hr 0.00 in0.0 mm
10:29 AM 41.7°F5.4°C 25.9°F-3.4°C 53% 2.0 mph S3.2 kmh S 4.0 mph6.4 kmh 25.28 in856.1 mb 0.00 in0.0 mm 0.00 in/hr0.0 mm/hr 0.00 in0.0 mm
10:24 AM 40.8°F4.9°C 25.0°F-3.9°C 53% 2.0 mph S3.2 kmh S 4.5 mph7.2 kmh 25.28 in856.1 mb 0.00 in0.0 mm 0.00 in/hr0.0 mm/hr 0.00 in0.0 mm
10:19 AM 40.6°F4.8°C 25.7°F-3.5°C 55% 2.0 mph S3.2 kmh S 4.0 mph6.4 kmh 25.28 in856.1 mb 0.00 in0.0 mm 0.00 in/hr0.0 mm/hr 0.00 in0.0 mm
10:14 AM 39.6°F4.2°C 24.3°F-4.3°C 54% 5.0 mph S8.0 kmh S 6.7 mph10.8 kmh 25.28 in856.1 mb 0.00 in0.0 mm 0.00 in/hr0.0 mm/hr 0.00 in0.0 mm
10:09 AM 39.4°F4.1°C 25.0°F-3.9°C 56% 6.0 mph S9.7 kmh S 8.3 mph13.4 kmh 25.28 in856.1 mb 0.00 in0.0 mm 0.00 in/hr0.0 mm/hr 0.00 in0.0 mm
10:04 AM 38.7°F3.7°C 24.3°F-4.3°C 56% 5.0 mph SSW8.0 kmh SSW 7.4 mph11.9 kmh 25.28 in856.1 mb 0.00 in0.0 mm 0.00 in/hr0.0 mm/hr 0.00 in0.0 mm
09:59 AM 38.8°F3.8°C 25.0°F-3.9°C 57% 4.0 mph WSW6.4 kmh WSW 7.8 mph12.6 kmh 25.28 in856.1 mb 0.00 in0.0 mm 0.00 in/hr0.0 mm/hr 0.00 in0.0 mm
09:54 AM 38.8°F3.8°C 26.2°F-3.2°C 60% 2.0 mph WSW3.2 kmh WSW 5.4 mph8.7 kmh 25.28 in856.1 mb 0.00 in0.0 mm 0.00 in/hr0.0 mm/hr 0.00 in0.0 mm
09:49 AM 38.8°F3.8°C 27.7°F-2.4°C 64% 2.0 mph WSW3.2 kmh WSW 3.6 mph5.8 kmh 25.28 in856.1 mb 0.00 in0.0 mm 0.00 in/hr0.0 mm/hr 0.00 in0.0 mm
09:44 AM 37.6°F3.1°C 27.3°F-2.6°C 66% 1.0 mph WSW1.6 kmh WSW 4.9 mph7.9 kmh 25.28 in856.1 mb 0.00 in0.0 mm 0.00 in/hr0.0 mm/hr 0.00 in0.0 mm
09:39 AM 37.0°F2.8°C 27.1°F-2.7°C 67% 1.0 mph WSW1.6 kmh WSW 3.6 mph5.8 kmh 25.28 in856.1 mb 0.00 in0.0 mm 0.00 in/hr0.0 mm/hr 0.00 in0.0 mm
09:34 AM 36.3°F2.4°C 27.1°F-2.7°C 69% 2.0 mph WSW3.2 kmh WSW 4.9 mph7.9 kmh 25.28 in856.1 mb 0.00 in0.0 mm 0.00 in/hr0.0 mm/hr 0.00 in0.0 mm
09:29 AM 35.6°F2.0°C 26.8°F-2.9°C 70% 2.0 mph WSW3.2 kmh WSW 5.4 mph8.7 kmh 25.28 in856.1 mb 0.00 in0.0 mm 0.00 in/hr0.0 mm/hr 0.00 in0.0 mm
09:24 AM 35.1°F1.7°C 26.2°F-3.2°C 70% 2.0 mph WSW3.2 kmh WSW 5.4 mph8.7 kmh 25.28 in856.1 mb 0.00 in0.0 mm 0.00 in/hr0.0 mm/hr 0.00 in0.0 mm
09:19 AM 34.9°F1.6°C 26.8°F-2.9°C 72% 1.0 mph W1.6 kmh W 4.5 mph7.2 kmh 25.28 in856.1 mb 0.00 in0.0 mm 0.00 in/hr0.0 mm/hr 0.00 in0.0 mm
09:14 AM 34.5°F1.4°C 26.8°F-2.9°C 73% Calm Calm 4.0 mph6.4 kmh 25.28 in856.1 mb 0.00 in0.0 mm 0.00 in/hr0.0 mm/hr 0.00 in0.0 mm
09:09 AM 34.9°F1.6°C 28.0°F-2.2°C 76% 1.0 mph W1.6 kmh W -- 25.28 in856.1 mb 0.00 in0.0 mm 0.00 in/hr0.0 mm/hr 0.00 in0.0 mm
09:04 AM 33.8°F1.0°C 27.1°F-2.7°C 76% 3.0 mph WSW4.8 kmh WSW 5.8 mph9.3 kmh 25.28 in856.1 mb 0.00 in0.0 mm 0.00 in/hr0.0 mm/hr 0.00 in0.0 mm
08:59 AM 33.3°F0.7°C 26.6°F-3.0°C 76% 4.0 mph SW6.4 kmh SW 6.7 mph10.8 kmh 25.28 in856.1 mb 0.00 in0.0 mm 0.00 in/hr0.0 mm/hr 0.00 in0.0 mm
08:54 AM 33.8°F1.0°C 27.3°F-2.6°C 77% 2.0 mph SSW3.2 kmh SSW 4.9 mph7.9 kmh 25.28 in856.1 mb 0.00 in0.0 mm 0.00 in/hr0.0 mm/hr 0.00 in0.0 mm
08:49 AM 33.6°F0.9°C 27.5°F-2.5°C 78% 2.0 mph SSW3.2 kmh SSW 3.6 mph5.8 kmh 25.28 in856.1 mb 0.00 in0.0 mm 0.00 in/hr0.0 mm/hr 0.00 in0.0 mm
08:44 AM 33.4°F0.8°C 27.3°F-2.6°C 78% 3.0 mph SSW4.8 kmh SSW 4.5 mph7.2 kmh 25.28 in856.1 mb 0.00 in0.0 mm 0.00 in/hr0.0 mm/hr 0.00 in0.0 mm
08:39 AM 32.7°F0.4°C 26.6°F-3.0°C 78% 4.0 mph S6.4 kmh S 6.3 mph10.1 kmh 25.28 in856.1 mb 0.00 in0.0 mm 0.00 in/hr0.0 mm/hr 0.00 in0.0 mm
08:34 AM 32.5°F0.3°C 26.4°F-3.1°C 78% 4.0 mph S6.4 kmh S 4.9 mph7.9 kmh 25.28 in856.1 mb 0.00 in0.0 mm 0.00 in/hr0.0 mm/hr 0.00 in0.0 mm
08:29 AM 32.5°F0.3°C 26.4°F-3.1°C 78% 3.0 mph E4.8 kmh E 5.8 mph9.3 kmh 25.28 in856.1 mb 0.00 in0.0 mm 0.00 in/hr0.0 mm/hr 0.00 in0.0 mm
08:24 AM 33.3°F0.7°C 28.0°F-2.2°C 81% 1.0 mph NE1.6 kmh NE 4.5 mph7.2 kmh 25.28 in856.1 mb 0.00 in0.0 mm 0.00 in/hr0.0 mm/hr 0.00 in0.0 mm
08:19 AM 32.9°F0.5°C 27.7°F-2.4°C 81% 1.0 mph NE1.6 kmh NE 3.1 mph5.0 kmh 25.28 in856.1 mb 0.00 in0.0 mm 0.00 in/hr0.0 mm/hr 0.00 in0.0 mm
08:13 AM 32.0°F0.0°C 27.5°F-2.5°C 83% 3.0 mph NNE4.8 kmh NNE 4.0 mph6.4 kmh 25.28 in856.1 mb 0.00 in0.0 mm 0.00 in/hr0.0 mm/hr 0.00 in0.0 mm
08:08 AM 30.9°F-0.6°C 26.6°F-3.0°C 84% 4.0 mph 6.4 kmh 6.3 mph10.1 kmh 25.28 in856.1 mb 0.00 in0.0 mm 0.00 in/hr0.0 mm/hr 0.00 in0.0 mm
08:03 AM 30.2°F-1.0°C 26.6°F-3.0°C 86% 3.0 mph W4.8 kmh W 6.7 mph10.8 kmh 25.28 in856.1 mb 0.00 in0.0 mm 0.00 in/hr0.0 mm/hr 0.00 in0.0 mm
07:58 AM 29.3°F-1.5°C 25.3°F-3.7°C 85% 1.0 mph WSW1.6 kmh WSW 4.5 mph7.2 kmh 25.28 in856.1 mb 0.00 in0.0 mm 0.00 in/hr0.0 mm/hr 0.00 in0.0 mm
07:53 AM 27.5°F-2.5°C 23.5°F-4.7°C 85% 1.0 mph WSW1.6 kmh WSW 3.1 mph5.0 kmh 25.28 in856.1 mb 0.00 in0.0 mm 0.00 in/hr0.0 mm/hr 0.00 in0.0 mm
07:48 AM 27.0°F-2.8°C 22.8°F-5.1°C 84% 2.0 mph WSW3.2 kmh WSW 3.6 mph5.8 kmh 25.28 in856.1 mb 0.00 in0.0 mm 0.00 in/hr0.0 mm/hr 0.00 in0.0 mm
07:43 AM 27.1°F-2.7°C 23.2°F-4.9°C 85% 3.0 mph WSW4.8 kmh WSW 4.5 mph7.2 kmh 25.28 in856.1 mb 0.00 in0.0 mm 0.00 in/hr0.0 mm/hr 0.00 in0.0 mm
07:38 AM 28.2°F-2.1°C 24.6°F-4.1°C 86% 4.0 mph WSW6.4 kmh WSW 5.8 mph9.3 kmh 25.25 in855.1 mb 0.00 in0.0 mm 0.00 in/hr0.0 mm/hr 0.00 in0.0 mm
07:33 AM 28.6°F-1.9°C 25.0°F-3.9°C 86% 3.0 mph SE4.8 kmh SE 6.7 mph10.8 kmh 25.25 in855.1 mb 0.00 in0.0 mm 0.00 in/hr0.0 mm/hr 0.00 in0.0 mm
07:28 AM 27.3°F-2.6°C 22.8°F-5.1°C 83% 2.0 mph ESE3.2 kmh ESE 3.6 mph5.8 kmh 25.25 in855.1 mb 0.00 in0.0 mm 0.00 in/hr0.0 mm/hr 0.00 in0.0 mm
07:23 AM 27.7°F-2.4°C 23.0°F-5.0°C 82% 2.0 mph SE3.2 kmh SE 4.5 mph7.2 kmh 25.25 in855.1 mb 0.00 in0.0 mm 0.00 in/hr0.0 mm/hr 0.00 in0.0 mm
07:18 AM 27.7°F-2.4°C 22.3°F-5.4°C 80% 2.0 mph SSE3.2 kmh SSE 3.6 mph5.8 kmh 25.25 in855.1 mb 0.00 in0.0 mm 0.00 in/hr0.0 mm/hr 0.00 in0.0 mm
07:13 AM 28.0°F-2.2°C 22.6°F-5.2°C 80% 3.0 mph SSE4.8 kmh SSE 4.9 mph7.9 kmh 25.25 in855.1 mb 0.00 in0.0 mm 0.00 in/hr0.0 mm/hr 0.00 in0.0 mm
07:08 AM 29.1°F-1.6°C 23.7°F-4.6°C 80% 3.0 mph S4.8 kmh S 6.7 mph10.8 kmh 25.25 in855.1 mb 0.00 in0.0 mm 0.00 in/hr0.0 mm/hr 0.00 in0.0 mm
07:03 AM 30.4°F-0.9°C 25.0°F-3.9°C 80% 2.0 mph E3.2 kmh E 5.8 mph9.3 kmh 25.25 in855.1 mb 0.00 in0.0 mm 0.00 in/hr0.0 mm/hr 0.00 in0.0 mm
06:58 AM 32.0°F0.0°C 28.0°F-2.2°C 85% Calm Calm 5.8 mph9.3 kmh 25.25 in855.1 mb 0.00 in0.0 mm 0.00 in/hr0.0 mm/hr 0.00 in0.0 mm
06:53 AM 31.5°F-0.3°C 27.7°F-2.4°C 86% Calm Calm 2.7 mph4.3 kmh 25.25 in855.1 mb 0.00 in0.0 mm 0.00 in/hr0.0 mm/hr 0.00 in0.0 mm
06:48 AM 30.4°F-0.9°C 26.8°F-2.9°C 86% 3.0 mph NNE4.8 kmh NNE 4.0 mph6.4 kmh 25.25 in855.1 mb 0.00 in0.0 mm 0.00 in/hr0.0 mm/hr 0.00 in0.0 mm
06:43 AM 29.7°F-1.3°C 25.7°F-3.5°C 85% 4.0 mph NNE6.4 kmh NNE 5.4 mph8.7 kmh 25.25 in855.1 mb 0.00 in0.0 mm 0.00 in/hr0.0 mm/hr 0.00 in0.0 mm
06:38 AM 28.6°F-1.9°C 24.6°F-4.1°C 85% 4.0 mph NNE6.4 kmh NNE 6.3 mph10.1 kmh 25.25 in855.1 mb 0.00 in0.0 mm 0.00 in/hr0.0 mm/hr 0.00 in0.0 mm
06:33 AM 28.4°F-2.0°C 24.4°F-4.2°C 85% 4.0 mph NNE6.4 kmh NNE 5.8 mph9.3 kmh 25.25 in855.1 mb 0.00 in0.0 mm 0.00 in/hr0.0 mm/hr 0.00 in0.0 mm
06:28 AM 28.4°F-2.0°C 24.4°F-4.2°C 85% 4.0 mph NNE6.4 kmh NNE 6.7 mph10.8 kmh 25.25 in855.1 mb 0.00 in0.0 mm 0.00 in/hr0.0 mm/hr 0.00 in0.0 mm
06:23 AM 29.5°F-1.4°C 25.9°F-3.4°C 86% 4.0 mph E6.4 kmh E 5.8 mph9.3 kmh 25.25 in855.1 mb 0.00 in0.0 mm 0.00 in/hr0.0 mm/hr 0.00 in0.0 mm
06:18 AM 29.1°F-1.6°C 25.5°F-3.6°C 86% 3.0 mph ESE4.8 kmh ESE 4.5 mph7.2 kmh 25.25 in855.1 mb 0.00 in0.0 mm 0.00 in/hr0.0 mm/hr 0.00 in0.0 mm
06:13 AM 28.4°F-2.0°C 24.8°F-4.0°C 86% 3.0 mph ESE4.8 kmh ESE 4.5 mph7.2 kmh 25.25 in855.1 mb 0.00 in0.0 mm 0.00 in/hr0.0 mm/hr 0.00 in0.0 mm
06:08 AM 28.2°F-2.1°C 24.3°F-4.3°C 85% 2.0 mph ESE3.2 kmh ESE 4.5 mph7.2 kmh 25.25 in855.1 mb 0.00 in0.0 mm 0.00 in/hr0.0 mm/hr 0.00 in0.0 mm
06:03 AM 26.8°F-2.9°C 23.2°F-4.9°C 86% Calm Calm 3.6 mph5.8 kmh 25.25 in855.1 mb 0.00 in0.0 mm 0.00 in/hr0.0 mm/hr 0.00 in0.0 mm
05:58 AM 27.0°F-2.8°C 23.0°F-5.0°C 85% 1.0 mph E1.6 kmh E 2.7 mph4.3 kmh 25.25 in855.1 mb 0.00 in0.0 mm 0.00 in/hr0.0 mm/hr 0.00 in0.0 mm
05:53 AM 26.8°F-2.9°C 22.8°F-5.1°C 85% 2.0 mph NNE3.2 kmh NNE 5.4 mph8.7 kmh 25.25 in855.1 mb 0.00 in0.0 mm 0.00 in/hr0.0 mm/hr 0.00 in0.0 mm
05:48 AM 27.5°F-2.5°C 23.5°F-4.7°C 85% 2.0 mph N3.2 kmh N 3.6 mph5.8 kmh 25.25 in855.1 mb 0.00 in0.0 mm 0.00 in/hr0.0 mm/hr 0.00 in0.0 mm
05:43 AM 27.1°F-2.7°C 23.0°F-5.0°C 84% 4.0 mph NNE6.4 kmh NNE 5.8 mph9.3 kmh 25.25 in855.1 mb 0.00 in0.0 mm 0.00 in/hr0.0 mm/hr 0.00 in0.0 mm
05:38 AM 27.1°F-2.7°C 23.2°F-4.9°C 85% 3.0 mph SSE4.8 kmh SSE 5.8 mph9.3 kmh 25.25 in855.1 mb 0.00 in0.0 mm 0.00 in/hr0.0 mm/hr 0.00 in0.0 mm
05:33 AM 27.1°F-2.7°C 23.5°F-4.7°C 86% 1.0 mph S1.6 kmh S 3.6 mph5.8 kmh 25.25 in855.1 mb 0.00 in0.0 mm 0.00 in/hr0.0 mm/hr 0.00 in0.0 mm
05:28 AM 27.1°F-2.7°C 23.5°F-4.7°C 86% 2.0 mph S3.2 kmh S 3.6 mph5.8 kmh 25.25 in855.1 mb 0.00 in0.0 mm 0.00 in/hr0.0 mm/hr 0.00 in0.0 mm
05:23 AM 26.8°F-2.9°C 23.2°F-4.9°C 86% 2.0 mph S3.2 kmh S 4.0 mph6.4 kmh 25.25 in855.1 mb 0.00 in0.0 mm 0.00 in/hr0.0 mm/hr 0.00 in0.0 mm
05:18 AM 27.1°F-2.7°C 23.7°F-4.6°C 87% 3.0 mph S4.8 kmh S 4.0 mph6.4 kmh 25.25 in855.1 mb 0.00 in0.0 mm 0.00 in/hr0.0 mm/hr 0.00 in0.0 mm
05:13 AM 28.0°F-2.2°C 24.6°F-4.1°C 87% 5.0 mph S8.0 kmh S 6.3 mph10.1 kmh 25.25 in855.1 mb 0.00 in0.0 mm 0.00 in/hr0.0 mm/hr 0.00 in0.0 mm
05:08 AM 27.5°F-2.5°C 23.9°F-4.5°C 86% 7.0 mph S11.3 kmh S 8.3 mph13.4 kmh 25.25 in855.1 mb 0.00 in0.0 mm 0.00 in/hr0.0 mm/hr 0.00 in0.0 mm
05:03 AM 27.0°F-2.8°C 22.5°F-5.3°C 83% 8.0 mph S12.9 kmh S 11.6 mph18.7 kmh 25.25 in855.1 mb 0.00 in0.0 mm 0.00 in/hr0.0 mm/hr 0.00 in0.0 mm
04:58 AM 27.9°F-2.3°C 21.9°F-5.6°C 78% 6.0 mph SSE9.7 kmh SSE 15.4 mph24.8 kmh 25.25 in855.1 mb 0.00 in0.0 mm 0.00 in/hr0.0 mm/hr 0.00 in0.0 mm
04:53 AM 31.3°F-0.4°C 23.0°F-5.0°C 71% 4.0 mph E6.4 kmh E 7.4 mph11.9 kmh 25.22 in854.0 mb 0.00 in0.0 mm 0.00 in/hr0.0 mm/hr 0.00 in0.0 mm
04:48 AM 33.8°F1.0°C 27.3°F-2.6°C 77% 2.0 mph ENE3.2 kmh ENE 5.4 mph8.7 kmh 25.22 in854.0 mb 0.00 in0.0 mm 0.00 in/hr0.0 mm/hr 0.00 in0.0 mm
04:43 AM 34.3°F1.3°C 28.8°F-1.8°C 80% 1.0 mph E1.6 kmh E 3.6 mph5.8 kmh 25.22 in854.0 mb 0.00 in0.0 mm 0.00 in/hr0.0 mm/hr 0.00 in0.0 mm
04:38 AM 32.7°F0.4°C 27.0°F-2.8°C 79% 1.0 mph NE1.6 kmh NE 4.0 mph6.4 kmh 25.22 in854.0 mb 0.00 in0.0 mm 0.00 in/hr0.0 mm/hr 0.00 in0.0 mm
04:33 AM 31.8°F-0.1°C 26.4°F-3.1°C 80% 2.0 mph N3.2 kmh N 4.5 mph7.2 kmh 25.22 in854.0 mb 0.00 in0.0 mm 0.00 in/hr0.0 mm/hr 0.00 in0.0 mm
04:28 AM 30.7°F-0.7°C 25.0°F-3.9°C 79% 4.0 mph N6.4 kmh N 5.4 mph8.7 kmh 25.22 in854.0 mb 0.00 in0.0 mm 0.00 in/hr0.0 mm/hr 0.00 in0.0 mm
04:23 AM 29.7°F-1.3°C 23.4°F-4.8°C 77% 3.0 mph NE4.8 kmh NE 6.3 mph10.1 kmh 25.22 in854.0 mb 0.00 in0.0 mm 0.00 in/hr0.0 mm/hr 0.00 in0.0 mm
04:18 AM 30.4°F-0.9°C 24.1°F-4.4°C 77% 2.0 mph NE3.2 kmh NE 3.6 mph5.8 kmh 25.22 in854.0 mb 0.00 in0.0 mm 0.00 in/hr0.0 mm/hr 0.00 in0.0 mm
04:13 AM 29.3°F-1.5°C 22.6°F-5.2°C 76% Calm Calm 3.1 mph5.0 kmh 25.22 in854.0 mb 0.00 in0.0 mm 0.00 in/hr0.0 mm/hr 0.00 in0.0 mm
04:08 AM 29.8°F-1.2°C 23.2°F-4.9°C 76% Calm Calm 2.7 mph4.3 kmh 25.25 in855.1 mb 0.00 in0.0 mm 0.00 in/hr0.0 mm/hr 0.00 in0.0 mm
04:03 AM 30.2°F-1.0°C 23.5°F-4.7°C 76% Calm Calm 2.7 mph4.3 kmh 25.25 in855.1 mb 0.00 in0.0 mm 0.00 in/hr0.0 mm/hr 0.00 in0.0 mm
03:58 AM 30.9°F-0.6°C 24.3°F-4.3°C 76% Calm Calm 3.1 mph5.0 kmh 25.25 in855.1 mb 0.00 in0.0 mm 0.00 in/hr0.0 mm/hr 0.00 in0.0 mm
03:53 AM 31.3°F-0.4°C 24.6°F-4.1°C 76% Calm Calm 2.7 mph4.3 kmh 25.25 in855.1 mb 0.00 in0.0 mm 0.00 in/hr0.0 mm/hr 0.00 in0.0 mm
03:48 AM 31.6°F-0.2°C 24.6°F-4.1°C 75% 1.0 mph NE1.6 kmh NE 2.7 mph4.3 kmh 25.25 in855.1 mb 0.00 in0.0 mm 0.00 in/hr0.0 mm/hr 0.00 in0.0 mm
03:43 AM 30.6°F-0.8°C 23.0°F-5.0°C 73% 3.0 mph E4.8 kmh E 4.9 mph7.9 kmh 25.25 in855.1 mb 0.00 in0.0 mm 0.00 in/hr0.0 mm/hr 0.00 in0.0 mm
03:38 AM 30.7°F-0.7°C 23.5°F-4.7°C 74% 1.0 mph SSE1.6 kmh SSE 4.5 mph7.2 kmh 25.25 in855.1 mb 0.00 in0.0 mm 0.00 in/hr0.0 mm/hr 0.00 in0.0 mm
03:33 AM 32.7°F0.4°C 26.1°F-3.3°C 76% Calm Calm 3.6 mph5.8 kmh 25.25 in855.1 mb 0.00 in0.0 mm 0.00 in/hr0.0 mm/hr 0.00 in0.0 mm
03:28 AM 31.8°F-0.1°C 24.8°F-4.0°C 75% Calm Calm 3.1 mph5.0 kmh 25.25 in855.1 mb 0.00 in0.0 mm 0.00 in/hr0.0 mm/hr 0.00 in0.0 mm
03:23 AM 31.5°F-0.3°C 24.1°F-4.4°C 74% Calm Calm -- 25.25 in855.1 mb 0.00 in0.0 mm 0.00 in/hr0.0 mm/hr 0.00 in0.0 mm
03:18 AM 31.3°F-0.4°C 23.4°F-4.8°C 72% Calm Calm -- 25.25 in855.1 mb 0.00 in0.0 mm 0.00 in/hr0.0 mm/hr 0.00 in0.0 mm
03:13 AM 31.3°F-0.4°C 22.3°F-5.4°C 69% 1.0 mph S1.6 kmh S 3.6 mph5.8 kmh 25.25 in855.1 mb 0.00 in0.0 mm 0.00 in/hr0.0 mm/hr 0.00 in0.0 mm
03:08 AM 32.2°F0.1°C 22.5°F-5.3°C 67% 2.0 mph SSE3.2 kmh SSE 4.5 mph7.2 kmh 25.25 in855.1 mb 0.00 in0.0 mm 0.00 in/hr0.0 mm/hr 0.00 in0.0 mm
03:03 AM 33.8°F1.0°C 23.4°F-4.8°C 65% 2.0 mph E3.2 kmh E 5.4 mph8.7 kmh 25.25 in855.1 mb 0.00 in0.0 mm 0.00 in/hr0.0 mm/hr 0.00 in0.0 mm
02:58 AM 35.6°F2.0°C 27.1°F-2.7°C 71% 1.0 mph E1.6 kmh E 3.6 mph5.8 kmh 25.25 in855.1 mb 0.00 in0.0 mm 0.00 in/hr0.0 mm/hr 0.00 in0.0 mm
02:53 AM 33.6°F0.9°C 25.0°F-3.9°C 70% 1.0 mph E1.6 kmh E 3.1 mph5.0 kmh 25.22 in854.0 mb 0.00 in0.0 mm 0.00 in/hr0.0 mm/hr 0.00 in0.0 mm
02:48 AM 33.6°F0.9°C 23.9°F-4.5°C 67% 1.0 mph E1.6 kmh E 4.5 mph7.2 kmh 25.22 in854.0 mb 0.00 in0.0 mm 0.00 in/hr0.0 mm/hr 0.00 in0.0 mm
02:43 AM 34.3°F1.3°C 24.6°F-4.1°C 67% 1.0 mph ENE1.6 kmh ENE 4.9 mph7.9 kmh 25.22 in854.0 mb 0.00 in0.0 mm 0.00 in/hr0.0 mm/hr 0.00 in0.0 mm
02:38 AM 35.6°F2.0°C 26.4°F-3.1°C 69% 1.0 mph NE1.6 kmh NE 4.0 mph6.4 kmh 25.25 in855.1 mb 0.00 in0.0 mm 0.00 in/hr0.0 mm/hr 0.00 in0.0 mm
02:33 AM 35.1°F1.7°C 26.2°F-3.2°C 70% 1.0 mph NE1.6 kmh NE 4.0 mph6.4 kmh 25.25 in855.1 mb 0.00 in0.0 mm 0.00 in/hr0.0 mm/hr 0.00 in0.0 mm
02:28 AM 34.5°F1.4°C 25.7°F-3.5°C 70% Calm Calm 3.6 mph5.8 kmh 25.25 in855.1 mb 0.00 in0.0 mm 0.00 in/hr0.0 mm/hr 0.00 in0.0 mm
02:23 AM 33.1°F0.6°C 23.7°F-4.6°C 68% Calm Calm 2.7 mph4.3 kmh 25.25 in855.1 mb 0.00 in0.0 mm 0.00 in/hr0.0 mm/hr 0.00 in0.0 mm
02:18 AM 33.6°F0.9°C 24.3°F-4.3°C 68% Calm Calm 2.7 mph4.3 kmh 25.25 in855.1 mb 0.00 in0.0 mm 0.00 in/hr0.0 mm/hr 0.00 in0.0 mm
02:13 AM 34.0°F1.1°C 24.3°F-4.3°C 67% Calm Calm 2.7 mph4.3 kmh 25.25 in855.1 mb 0.00 in0.0 mm 0.00 in/hr0.0 mm/hr 0.00 in0.0 mm
02:08 AM 34.5°F1.4°C 24.6°F-4.1°C 67% Calm Calm 3.6 mph5.8 kmh 25.25 in855.1 mb 0.00 in0.0 mm 0.00 in/hr0.0 mm/hr 0.00 in0.0 mm
02:03 AM 35.6°F2.0°C 26.4°F-3.1°C 69% Calm Calm 2.7 mph4.3 kmh 25.25 in855.1 mb 0.00 in0.0 mm 0.00 in/hr0.0 mm/hr 0.00 in0.0 mm
01:58 AM 35.1°F1.7°C 25.9°F-3.4°C 69% Calm Calm 2.7 mph4.3 kmh 25.25 in855.1 mb 0.00 in0.0 mm 0.00 in/hr0.0 mm/hr 0.00 in0.0 mm
01:53 AM 34.9°F1.6°C 25.7°F-3.5°C 69% 1.0 mph NNE1.6 kmh NNE 3.1 mph5.0 kmh 25.22 in854.0 mb 0.00 in0.0 mm 0.00 in/hr0.0 mm/hr 0.00 in0.0 mm
01:48 AM 34.2°F1.2°C 25.2°F-3.8°C 69% 2.0 mph NNE3.2 kmh NNE 3.1 mph5.0 kmh 25.22 in854.0 mb 0.00 in0.0 mm 0.00 in/hr0.0 mm/hr 0.00 in0.0 mm
01:43 AM 34.3°F1.3°C 25.5°F-3.6°C 70% 3.0 mph NNE4.8 kmh NNE 4.5 mph7.2 kmh 25.22 in854.0 mb 0.00 in0.0 mm 0.00 in/hr0.0 mm/hr 0.00 in0.0 mm
01:38 AM 33.3°F0.7°C 23.9°F-4.5°C 68% 2.0 mph NE3.2 kmh NE 5.4 mph8.7 kmh 25.25 in855.1 mb 0.00 in0.0 mm 0.00 in/hr0.0 mm/hr 0.00 in0.0 mm
01:33 AM 33.3°F0.7°C 24.3°F-4.3°C 69% Calm Calm 4.9 mph7.9 kmh 25.25 in855.1 mb 0.00 in0.0 mm 0.00 in/hr0.0 mm/hr 0.00 in0.0 mm
01:28 AM 33.4°F0.8°C 24.8°F-4.0°C 70% Calm Calm -- 25.25 in855.1 mb 0.00 in0.0 mm 0.00 in/hr0.0 mm/hr 0.00 in0.0 mm
01:23 AM 33.1°F0.6°C 24.4°F-4.2°C 70% Calm Calm -- 25.22 in854.0 mb 0.00 in0.0 mm 0.00 in/hr0.0 mm/hr 0.00 in0.0 mm
01:18 AM 32.7°F0.4°C 23.7°F-4.6°C 69% Calm Calm 2.7 mph4.3 kmh 25.22 in854.0 mb 0.00 in0.0 mm 0.00 in/hr0.0 mm/hr 0.00 in0.0 mm
01:13 AM 32.2°F0.1°C 22.5°F-5.3°C 67% Calm Calm 2.7 mph4.3 kmh 25.22 in854.0 mb 0.00 in0.0 mm 0.00 in/hr0.0 mm/hr 0.00 in0.0 mm
01:08 AM 32.7°F0.4°C 23.0°F-5.0°C 67% Calm Calm 2.7 mph4.3 kmh 25.22 in854.0 mb 0.00 in0.0 mm 0.00 in/hr0.0 mm/hr 0.00 in0.0 mm
01:03 AM 32.9°F0.5°C 22.5°F-5.3°C 65% Calm Calm 3.1 mph5.0 kmh 25.22 in854.0 mb 0.00 in0.0 mm 0.00 in/hr0.0 mm/hr 0.00 in0.0 mm
12:58 AM 33.6°F0.9°C 22.8°F-5.1°C 64% Calm Calm 2.7 mph4.3 kmh 25.22 in854.0 mb 0.00 in0.0 mm 0.00 in/hr0.0 mm/hr 0.00 in0.0 mm
12:53 AM 34.0°F1.1°C 23.2°F-4.9°C 64% Calm Calm -- 25.22 in854.0 mb 0.00 in0.0 mm 0.00 in/hr0.0 mm/hr 0.00 in0.0 mm
12:48 AM 34.0°F1.1°C 22.3°F-5.4°C 62% Calm Calm -- 25.22 in854.0 mb 0.00 in0.0 mm 0.00 in/hr0.0 mm/hr 0.00 in0.0 mm
12:43 AM 34.3°F1.3°C 22.3°F-5.4°C 61% Calm Calm -- 25.22 in854.0 mb 0.00 in0.0 mm 0.00 in/hr0.0 mm/hr 0.00 in0.0 mm
12:38 AM 34.3°F1.3°C 21.6°F-5.8°C 59% Calm Calm -- 25.22 in854.0 mb 0.00 in0.0 mm 0.00 in/hr0.0 mm/hr 0.00 in0.0 mm
12:33 AM 34.7°F1.5°C 21.0°F-6.1°C 57% Calm Calm -- 25.22 in854.0 mb 0.00 in0.0 mm 0.00 in/hr0.0 mm/hr 0.00 in0.0 mm
12:28 AM 35.4°F1.9°C 20.5°F-6.4°C 54% Calm Calm -- 25.22 in854.0 mb 0.00 in0.0 mm 0.00 in/hr0.0 mm/hr 0.00 in0.0 mm
12:23 AM 36.3°F2.4°C 20.8°F-6.2°C 53% Calm Calm -- 25.22 in854.0 mb 0.00 in0.0 mm 0.00 in/hr0.0 mm/hr 0.00 in0.0 mm
12:18 AM 37.8°F3.2°C 22.1°F-5.5°C 53% Calm Calm -- 25.22 in854.0 mb 0.00 in0.0 mm 0.00 in/hr0.0 mm/hr 0.00 in0.0 mm
12:13 AM 38.7°F3.7°C 23.5°F-4.7°C 54% Calm Calm -- 25.22 in854.0 mb 0.00 in0.0 mm 0.00 in/hr0.0 mm/hr 0.00 in0.0 mm
12:08 AM 38.8°F3.8°C 24.1°F-4.4°C 55% Calm Calm -- 25.22 in854.0 mb 0.00 in0.0 mm 0.00 in/hr0.0 mm/hr 0.00 in0.0 mm
12:02 AM 38.7°F3.7°C 23.9°F-4.5°C 55% Calm Calm -- 25.22 in854.0 mb 0.00 in0.0 mm 0.00 in/hr0.0 mm/hr 0.00 in0.0 mm
WeatherForYou.com, LLC is not responsible for any damages or problems caused by this service. Current weather conditions are obtained from the closest station including government and personal stations which may have varying degrees of accuracy. Weather forecasts are derived from the NOAA NDFD and obtained through HAMweather's Aeris Weather API. Like all things, this site belongs to Jesus Christ... He just trusts me to maintain it. If you have any questions or comments email webmaster@weatherforyou.com

Copyright © 2015, WeatherForYou.com LLC. All rights reserved.